Time;durP1;ratioP1;P1;durP2;ratioP2;P2;SDS_P1;SDS_P2;PMS_P1;PMS_P2;Temp;Humidity;BMP_temperature;BMP_pressure;BME280_temperature;BME280_humidity;BME280_pressure;Samples;Min_cycle;Max_cycle;Signal;HPM_P1;HPM_P2
2024/03/31 00:01:12;;;;;;;0.45;0.45;;;5.60;99.90;;;;;;5050477;28;20040;-80
2024/03/31 00:03:40;;;;;;;0.50;0.50;;;5.50;99.90;;;;;;5067332;28;20052;-77
2024/03/31 00:06:06;;;;;;;0.50;0.50;;;5.50;99.90;;;;;;5050474;28;20285;-76
2024/03/31 00:08:32;;;;;;;0.47;0.47;;;5.40;99.90;;;;;;5049289;28;20047;-76
2024/03/31 00:11:12;;;;;;;0.55;0.55;;;5.40;99.90;;;;;;5049763;28;20040;-80
2024/03/31 00:13:38;;;;;;;0.40;0.40;;;5.30;99.90;;;;;;5067049;28;20071;-81
2024/03/31 00:16:04;;;;;;;0.40;0.40;;;5.20;99.90;;;;;;5062489;28;20040;-81
2024/03/31 00:18:29;;;;;;;0.60;0.60;;;5.20;99.90;;;;;;5051864;28;20048;-81
2024/03/31 00:20:56;;;;;;;0.50;0.50;;;5.20;99.90;;;;;;5059721;28;20055;-82
2024/03/31 00:23:22;;;;;;;0.50;0.50;;;5.00;99.90;;;;;;5073498;28;20035;-82
2024/03/31 00:25:58;;;;;;;0.50;0.50;;;5.00;99.90;;;;;;5051349;28;20043;-81
2024/03/31 00:28:24;;;;;;;0.57;0.57;;;5.00;99.90;;;;;;5065629;28;20036;-81
2024/03/31 00:30:56;;;;;;;;;;;4.90;99.90;;;;;;5073024;28;20461;-82
2024/03/31 00:33:23;;;;;;;0.60;0.60;;;4.90;99.90;;;;;;5086499;28;19966;-80
2024/03/31 00:35:54;;;;;;;0.40;0.40;;;6.40;99.90;;;;;;5070490;28;20044;-81
2024/03/31 00:38:20;;;;;;;0.60;0.60;;;4.90;99.90;;;;;;5069768;28;20032;-81
2024/03/31 00:40:46;;;;;;;0.65;0.65;;;5.90;99.90;;;;;;5070746;28;20042;-81
2024/03/31 00:43:13;;;;;;;0.60;0.60;;;5.80;99.90;;;;;;5088682;28;20032;-81
2024/03/31 00:45:39;;;;;;;0.50;0.50;;;4.80;99.90;;;;;;5070017;28;21531;-82
2024/03/31 00:48:06;;;;;;;0.40;0.40;;;6.00;99.90;;;;;;5073396;28;20375;-81
2024/03/31 00:50:31;;;;;;;0.60;0.60;;;4.80;99.90;;;;;;5068011;28;20101;-81
2024/03/31 00:52:57;;;;;;;0.50;0.50;;;6.20;99.90;;;;;;5067072;28;20252;-82
2024/03/31 00:55:23;;;;;;;0.60;0.60;;;4.80;99.90;;;;;;5054770;28;20044;-82
2024/03/31 00:57:49;;;;;;;;;;;5.90;99.90;;;;;;5070998;28;20486;-82
2024/03/31 01:00:16;;;;;;;0.60;0.60;;;4.70;99.90;;;;;;5091355;28;19916;-81
2024/03/31 01:02:42;;;;;;;0.50;0.50;;;4.90;99.90;;;;;;5072353;28;20039;-81
2024/03/31 01:05:08;;;;;;;0.40;0.40;;;4.60;99.90;;;;;;5056026;28;20040;-82
2024/03/31 01:07:34;;;;;;;0.60;0.60;;;4.60;99.90;;;;;;5055948;28;20389;-82
2024/03/31 01:10:00;;;;;;;0.47;0.47;;;4.60;99.90;;;;;;5091276;28;20036;-82
2024/03/31 01:12:27;;;;;;;0.50;0.50;;;4.60;99.90;;;;;;5074050;28;20036;-83
2024/03/31 01:14:53;;;;;;;0.60;0.60;;;5.40;99.90;;;;;;5098061;28;20578;-84
2024/03/31 01:17:19;;;;;;;0.40;0.40;;;4.60;99.90;;;;;;5048752;28;20044;-84
2024/03/31 01:19:45;;;;;;;0.47;0.47;;;4.60;99.90;;;;;;5046481;28;20047;-84
2024/03/31 01:22:11;;;;;;;0.75;0.75;;;5.90;99.90;;;;;;5036945;28;20097;-84
2024/03/31 01:24:37;;;;;;;0.70;0.70;;;4.60;99.90;;;;;;5035263;28;20056;-84
2024/03/31 01:27:03;;;;;;;0.50;0.50;;;5.00;99.90;;;;;;5062903;28;20036;-84
2024/03/31 01:29:28;;;;;;;0.50;0.50;;;4.70;99.90;;;;;;5038433;28;20105;-83
2024/03/31 01:31:54;;;;;;;0.60;0.60;;;4.70;99.90;;;;;;5052939;28;20508;-84
2024/03/31 01:34:20;;;;;;;0.52;0.52;;;4.70;99.90;;;;;;5036804;28;20508;-83
2024/03/31 01:36:46;;;;;;;0.60;0.60;;;5.10;99.90;;;;;;5039545;28;20044;-84
2024/03/31 01:39:14;;;;;;;0.70;0.70;;;4.70;99.90;;;;;;5043415;28;20047;-84
2024/03/31 01:41:40;;;;;;;0.88;0.88;;;5.50;99.90;;;;;;5026288;28;20352;-84
2024/03/31 01:44:06;;;;;;;0.50;0.50;;;4.70;99.90;;;;;;5039436;28;20118;-84
2024/03/31 01:46:32;;;;;;;0.60;0.60;;;4.70;99.90;;;;;;5073490;28;20446;-83
2024/03/31 01:48:58;;;;;;;0.55;0.55;;;4.60;99.90;;;;;;5036017;28;20041;-84
2024/03/31 01:51:24;;;;;;;0.60;0.60;;;5.60;99.90;;;;;;5039091;28;20060;-83
2024/03/31 01:53:50;;;;;;;0.50;0.50;;;6.00;99.90;;;;;;5026169;28;20042;-84
2024/03/31 01:56:15;;;;;;;0.50;0.50;;;5.50;99.90;;;;;;5036752;28;20447;-84
2024/03/31 01:58:41;;;;;;;0.50;0.50;;;4.60;99.90;;;;;;5042219;28;20048;-85
2024/03/31 02:01:07;;;;;;;0.50;0.50;;;4.70;99.90;;;;;;5059059;28;20047;-86
2024/03/31 02:03:33;;;;;;;0.70;0.70;;;5.50;99.90;;;;;;5023107;28;20177;-84
2024/03/31 02:05:58;;;;;;;0.60;0.60;;;6.00;99.90;;;;;;5050960;28;20040;-84
2024/03/31 02:08:24;;;;;;;0.63;0.63;;;6.30;99.90;;;;;;5069490;28;20036;-86
2024/03/31 02:10:50;;;;;;;0.55;0.55;;;4.70;99.90;;;;;;5070408;28;20035;-86
2024/03/31 02:13:16;;;;;;;0.50;0.50;;;6.30;99.90;;;;;;5079011;28;20040;-83
2024/03/31 02:15:44;;;;;;;0.52;0.52;;;4.70;99.90;;;;;;5057590;28;20493;-83
2024/03/31 02:18:09;;;;;;;0.60;0.60;;;4.80;99.90;;;;;;5069736;28;20143;-84
2024/03/31 02:20:35;;;;;;;0.50;0.50;;;4.80;99.90;;;;;;5072820;28;20111;-84
2024/03/31 02:23:01;;;;;;;0.50;0.50;;;6.10;99.90;;;;;;5067853;28;20414;-85
2024/03/31 02:25:26;;;;;;;1.95;1.63;;;4.90;99.90;;;;;;5072290;28;20040;-84
2024/03/31 02:27:52;;;;;;;0.60;0.60;;;5.00;99.90;;;;;;5052322;28;20036;-84
2024/03/31 02:30:18;;;;;;;0.43;0.43;;;5.00;99.90;;;;;;5087446;28;20055;-84
2024/03/31 02:32:43;;;;;;;0.60;0.60;;;6.10;99.90;;;;;;5051393;28;20402;-84
2024/03/31 02:35:09;;;;;;;0.50;0.50;;;5.10;99.90;;;;;;5086170;28;20390;-83
2024/03/31 02:37:35;;;;;;;0.70;0.70;;;3.90;99.90;;;;;;5070315;28;20079;-83
2024/03/31 02:40:00;;;;;;;0.45;0.45;;;5.20;99.90;;;;;;5082326;28;20047;-83
2024/03/31 02:42:26;;;;;;;0.50;0.50;;;6.00;99.90;;;;;;5084984;28;20040;-83
2024/03/31 02:44:52;;;;;;;0.50;0.50;;;4.60;99.90;;;;;;5053369;28;20059;-83
2024/03/31 02:47:17;;;;;;;0.60;0.60;;;5.20;99.90;;;;;;5054082;28;20039;-83
2024/03/31 02:49:43;;;;;;;0.60;0.60;;;5.30;99.90;;;;;;5069268;28;21246;-84
2024/03/31 02:52:09;;;;;;;0.50;0.50;;;5.30;99.90;;;;;;5051223;28;20036;-82
2024/03/31 02:54:34;;;;;;;0.50;0.50;;;6.80;99.90;;;;;;5073708;28;20090;-83
2024/03/31 02:57:00;;;;;;;0.50;0.50;;;5.40;99.90;;;;;;5090207;28;20046;-83
2024/03/31 02:59:26;;;;;;;0.43;0.43;;;6.50;99.90;;;;;;5088654;28;20038;-84
2024/03/31 03:01:51;;;;;;;0.50;0.50;;;5.40;99.90;;;;;;5088860;28;20451;-84
2024/03/31 03:04:17;;;;;;;0.50;0.50;;;5.40;99.90;;;;;;5056807;28;20063;-84
2024/03/31 03:06:43;;;;;;;0.50;0.50;;;5.50;99.90;;;;;;5047445;28;20044;-84
2024/03/31 03:09:08;;;;;;;0.40;0.40;;;5.50;99.90;;;;;;5067960;28;20055;-84
2024/03/31 03:11:34;;;;;;;0.60;0.60;;;5.80;99.90;;;;;;5053742;28;20032;-83
2024/03/31 03:14:00;;;;;;;0.70;0.70;;;5.60;99.90;;;;;;5070300;28;20028;-84
2024/03/31 03:16:26;;;;;;;0.60;0.60;;;5.90;99.90;;;;;;5059396;28;20043;-83
2024/03/31 03:18:51;;;;;;;0.40;0.40;;;5.80;99.90;;;;;;5053657;28;20055;-84
2024/03/31 03:21:17;;;;;;;0.52;0.52;;;5.80;99.90;;;;;;5067553;28;20304;-83
2024/03/31 03:23:43;;;;;;;0.60;0.60;;;5.90;99.90;;;;;;5053091;28;20043;-84
2024/03/31 03:26:08;;;;;;;0.60;0.60;;;5.90;99.90;;;;;;5036438;28;20135;-82
2024/03/31 03:28:34;;;;;;;0.57;0.57;;;6.00;99.90;;;;;;5089394;28;20162;-82
2024/03/31 03:31:03;;;;;;;0.60;0.60;;;6.40;99.90;;;;;;5081861;28;20040;-83
2024/03/31 03:33:29;;;;;;;0.50;0.50;;;6.10;99.90;;;;;;5083357;28;20082;-83
2024/03/31 03:35:55;;;;;;;0.50;0.50;;;6.10;99.90;;;;;;5083763;28;20064;-84
2024/03/31 03:38:21;;;;;;;0.50;0.50;;;6.20;99.90;;;;;;5088936;28;20061;-83
2024/03/31 03:40:46;;;;;;;0.60;0.60;;;6.20;99.90;;;;;;5067763;28;20055;-83
2024/03/31 03:43:13;;;;;;;0.57;0.57;;;6.30;99.90;;;;;;5087797;28;20041;-85
2024/03/31 03:45:38;;;;;;;0.50;0.50;;;6.20;99.90;;;;;;5064866;28;20110;-83
2024/03/31 03:48:05;;;;;;;0.50;0.50;;;6.30;99.90;;;;;;5053210;28;20633;-82
2024/03/31 03:50:30;;;;;;;;;;;6.30;99.90;;;;;;5034034;28;20115;-83
2024/03/31 03:52:56;;;;;;;0.50;0.50;;;6.30;99.90;;;;;;5087389;28;20061;-82
2024/03/31 03:55:21;;;;;;;0.50;0.50;;;6.30;99.90;;;;;;5087002;28;20039;-81
2024/03/31 03:57:47;;;;;;;0.60;0.60;;;6.40;99.90;;;;;;5085364;28;20100;-83
2024/03/31 04:00:13;;;;;;;0.50;0.50;;;6.40;99.90;;;;;;5068384;28;20032;-83
2024/03/31 04:02:39;;;;;;;0.45;0.45;;;6.40;99.90;;;;;;5069386;28;20154;-83
2024/03/31 04:05:04;;;;;;;0.50;0.50;;;6.40;99.90;;;;;;5066462;28;20045;-82
2024/03/31 04:07:30;;;;;;;0.60;0.60;;;6.50;99.90;;;;;;5052373;28;20043;-83
2024/03/31 04:09:56;;;;;;;0.40;0.40;;;6.50;99.90;;;;;;5062759;28;20055;-82
2024/03/31 04:12:22;;;;;;;0.50;0.50;;;6.60;99.90;;;;;;5087607;28;20466;-83
2024/03/31 04:14:47;;;;;;;1.30;1.30;;;6.60;99.90;;;;;;5068976;28;20442;-83
2024/03/31 04:17:13;;;;;;;0.55;0.55;;;6.60;99.90;;;;;;5070368;28;20066;-84
2024/03/31 04:19:39;;;;;;;0.40;0.40;;;6.90;99.90;;;;;;5087165;28;20105;-83
2024/03/31 04:22:04;;;;;;;0.40;0.40;;;6.70;99.90;;;;;;5051071;28;20041;-83
2024/03/31 04:24:30;;;;;;;0.50;0.50;;;6.70;99.90;;;;;;5088485;28;20047;-82
2024/03/31 04:26:55;;;;;;;0.45;0.45;;;6.80;99.90;;;;;;5051858;28;20045;-83
2024/03/31 04:29:21;;;;;;;0.50;0.50;;;6.80;99.90;;;;;;5041954;28;20040;-83
2024/03/31 04:31:55;;;;;;;0.40;0.40;;;7.80;99.90;;;;;;5059298;28;20100;-83
2024/03/31 04:34:21;;;;;;;0.45;0.45;;;7.30;99.90;;;;;;5079101;28;20073;-82
2024/03/31 04:36:50;;;;;;;0.73;0.63;;;7.20;99.90;;;;;;5075946;28;20062;-83
2024/03/31 04:39:16;;;;;;;0.40;0.40;;;6.90;99.90;;;;;;5050855;28;20111;-83
2024/03/31 04:41:42;;;;;;;0.47;0.47;;;6.90;99.90;;;;;;5087460;28;20056;-83
2024/03/31 04:44:08;;;;;;;0.60;0.60;;;6.90;99.90;;;;;;5069016;28;20044;-84
2024/03/31 04:46:34;;;;;;;0.50;0.50;;;6.90;99.90;;;;;;5069562;28;20078;-83
2024/03/31 04:48:59;;;;;;;0.57;0.57;;;6.90;99.90;;;;;;5069602;28;20028;-82
2024/03/31 04:51:25;;;;;;;0.50;0.50;;;7.60;99.90;;;;;;5047541;28;20086;-83
2024/03/31 04:53:51;;;;;;;0.60;0.60;;;7.00;99.90;;;;;;5088082;28;20499;-83
2024/03/31 04:56:16;;;;;;;0.63;0.63;;;6.90;99.90;;;;;;5068848;28;20043;-83
2024/03/31 04:58:42;;;;;;;0.50;0.50;;;6.90;99.90;;;;;;5072320;28;20504;-84
2024/03/31 05:01:08;;;;;;;0.45;0.45;;;6.90;99.90;;;;;;5052208;28;20043;-85
2024/03/31 05:03:33;;;;;;;0.50;0.50;;;7.80;99.90;;;;;;5075016;28;20037;-85
2024/03/31 05:05:59;;;;;;;0.55;0.55;;;7.00;99.90;;;;;;5089532;28;20044;-84
2024/03/31 05:08:25;;;;;;;0.50;0.50;;;6.90;99.90;;;;;;5085309;28;20028;-83
2024/03/31 05:10:57;;;;;;;0.50;0.50;;;7.00;99.90;;;;;;5069111;28;20154;-82
2024/03/31 05:13:30;;;;;;;0.40;0.40;;;7.00;99.90;;;;;;5084472;28;20040;-82
2024/03/31 05:16:02;;;;;;;0.50;0.50;;;7.00;99.90;;;;;;5088627;28;20040;-81
2024/03/31 05:18:28;;;;;;;0.50;0.50;;;6.90;99.90;;;;;;5054331;28;20130;-83
2024/03/31 05:20:59;;;;;;;0.60;0.60;;;7.30;99.90;;;;;;5072586;28;20131;-86
2024/03/31 05:23:24;;;;;;;0.40;0.40;;;7.10;99.90;;;;;;5089354;28;20032;-84
2024/03/31 05:25:51;;;;;;;0.50;0.50;;;7.00;99.90;;;;;;5073180;28;20044;-84
2024/03/31 05:28:17;;;;;;;2.17;0.68;;;7.00;99.90;;;;;;5056400;28;20090;-84
2024/03/31 05:30:44;;;;;;;0.43;0.43;;;7.00;99.90;;;;;;5051926;28;20039;-82
2024/03/31 05:33:10;;;;;;;4.05;3.75;;;6.90;99.90;;;;;;5088241;28;20084;-84
2024/03/31 05:35:35;;;;;;;0.75;0.75;;;6.90;99.90;;;;;;5076974;28;20032;-83
2024/03/31 05:38:01;;;;;;;0.50;0.50;;;7.00;99.90;;;;;;5074437;28;20371;-85
2024/03/31 05:40:27;;;;;;;0.70;0.70;;;7.00;99.90;;;;;;5046518;28;20397;-85
2024/03/31 05:42:53;;;;;;;;;;;;;;;;;;5019442;28;20044;-82
2024/03/31 05:45:19;;;;;;;0.50;0.50;;;7.00;99.90;;;;;;5053519;28;20391;-84
2024/03/31 05:47:45;;;;;;;0.45;0.45;;;7.70;99.90;;;;;;5056081;28;20044;-85
2024/03/31 05:50:11;;;;;;;0.50;0.50;;;7.10;99.90;;;;;;5036469;28;20047;-84
2024/03/31 05:52:36;;;;;;;0.50;0.50;;;7.10;99.90;;;;;;5036326;28;20044;-84
2024/03/31 05:55:02;;;;;;;0.47;0.47;;;8.30;99.90;;;;;;5054597;28;20537;-84
2024/03/31 05:57:28;;;;;;;0.60;0.60;;;7.10;99.90;;;;;;5041283;28;20046;-86
2024/03/31 05:59:54;;;;;;;0.47;0.47;;;8.00;99.90;;;;;;5056453;28;20040;-85
2024/03/31 06:02:20;;;;;;;0.40;0.40;;;6.80;99.90;;;;;;5035838;28;20649;-84
2024/03/31 06:04:45;;;;;;;0.50;0.50;;;7.20;99.90;;;;;;5039447;28;20040;-85
2024/03/31 06:07:11;;;;;;;0.38;0.38;;;7.20;99.90;;;;;;5054282;28;20036;-83
2024/03/31 06:09:37;;;;;;;0.45;0.45;;;7.30;99.90;;;;;;5040167;28;20036;-85
2024/03/31 06:12:03;;;;;;;0.63;0.63;;;7.20;99.90;;;;;;5037612;28;20070;-85
2024/03/31 06:14:29;;;;;;;;;;;7.30;99.90;;;;;;5024668;28;20101;-84
2024/03/31 06:16:58;;;;;;;0.40;0.40;;;7.80;99.90;;;;;;5053898;28;19942;-84
2024/03/31 06:19:23;;;;;;;0.52;0.45;;;7.50;99.90;;;;;;5034883;28;20497;-84
2024/03/31 06:21:49;;;;;;;0.43;0.43;;;7.40;99.90;;;;;;5049005;28;20043;-84
2024/03/31 06:24:15;;;;;;;0.50;0.50;;;7.30;99.90;;;;;;5048502;28;20058;-85
2024/03/31 06:26:41;;;;;;;0.45;0.45;;;7.50;99.90;;;;;;5076004;28;20040;-84
2024/03/31 06:29:07;;;;;;;0.50;0.50;;;7.30;99.90;;;;;;5071751;28;20044;-85
2024/03/31 06:31:32;;;;;;;0.43;0.43;;;7.40;99.90;;;;;;5039156;28;20393;-85
2024/03/31 06:33:59;;;;;;;;;;;7.40;99.90;;;;;;5036319;28;20067;-83
2024/03/31 06:36:25;;;;;;;0.40;0.40;;;7.40;99.90;;;;;;5071315;28;19959;-84
2024/03/31 06:38:51;;;;;;;0.30;0.30;;;7.50;99.90;;;;;;5040091;28;20055;-84
2024/03/31 06:41:18;;;;;;;0.47;0.47;;;7.50;99.90;;;;;;5055279;28;20413;-84
2024/03/31 06:43:43;;;;;;;0.50;0.50;;;7.50;99.90;;;;;;5054349;28;20052;-84
2024/03/31 06:46:09;;;;;;;0.47;0.43;;;7.90;99.90;;;;;;5055781;28;20032;-83
2024/03/31 06:48:35;;;;;;;0.30;0.30;;;7.60;99.90;;;;;;5027021;28;20032;-83
2024/03/31 06:51:01;;;;;;;0.50;0.50;;;8.80;99.90;;;;;;5036502;28;20131;-83
2024/03/31 06:53:27;;;;;;;0.50;0.50;;;7.70;99.90;;;;;;5036877;28;20043;-83
2024/03/31 06:55:52;;;;;;;0.50;0.50;;;7.70;99.90;;;;;;5036036;28;20036;-83
2024/03/31 06:58:18;;;;;;;0.40;0.40;;;7.70;99.90;;;;;;5040943;28;20043;-84
2024/03/31 07:00:44;;;;;;;0.52;0.52;;;7.80;99.90;;;;;;5039385;28;20081;-83
2024/03/31 07:03:10;;;;;;;0.50;0.50;;;7.80;99.90;;;;;;5036427;28;20051;-84
2024/03/31 07:05:35;;;;;;;0.45;0.45;;;7.80;99.90;;;;;;5033728;28;20158;-83
2024/03/31 07:08:01;;;;;;;0.40;0.40;;;8.00;99.90;;;;;;5074823;28;20096;-83
2024/03/31 07:10:28;;;;;;;0.30;0.30;;;7.90;99.90;;;;;;5036453;28;20520;-84
2024/03/31 07:12:54;;;;;;;0.40;0.40;;;7.90;99.90;;;;;;5043453;28;20620;-82
2024/03/31 07:15:20;;;;;;;0.50;0.50;;;7.90;99.90;;;;;;5040196;28;20119;-83
2024/03/31 07:17:48;;;;;;;0.75;0.75;;;8.10;99.90;;;;;;5034229;28;20484;-83
2024/03/31 07:20:14;;;;;;;0.50;0.50;;;8.00;99.90;;;;;;5030684;28;20053;-83
2024/03/31 07:22:40;;;;;;;0.30;0.30;;;8.00;99.90;;;;;;5012032;28;20475;-83
2024/03/31 07:25:06;;;;;;;0.50;0.50;;;8.10;99.90;;;;;;5014504;28;20041;-83
2024/03/31 07:27:32;;;;;;;0.40;0.40;;;9.00;99.90;;;;;;5011242;28;20461;-82
2024/03/31 07:29:58;;;;;;;0.40;0.40;;;8.40;99.90;;;;;;5013621;28;20090;-85
2024/03/31 07:32:23;;;;;;;0.40;0.40;;;8.10;99.90;;;;;;5014954;28;20028;-83
2024/03/31 07:34:49;;;;;;;0.40;0.40;;;8.20;99.90;;;;;;5030220;28;20052;-84
2024/03/31 07:37:15;;;;;;;0.47;0.47;;;8.20;99.90;;;;;;5008613;28;20517;-85
2024/03/31 07:39:41;;;;;;;0.30;0.30;;;8.20;99.90;;;;;;5012169;28;20053;-83
2024/03/31 07:42:07;;;;;;;1.77;0.52;;;8.30;99.90;;;;;;5031285;28;20068;-86
2024/03/31 07:44:32;;;;;;;0.40;0.40;;;8.90;99.90;;;;;;5017226;28;20044;-85
2024/03/31 07:46:59;;;;;;;0.40;0.40;;;8.80;99.90;;;;;;5022010;28;20083;-85
2024/03/31 07:49:25;;;;;;;0.30;0.30;;;8.40;99.90;;;;;;5023685;28;20059;-85
2024/03/31 07:51:51;;;;;;;0.40;0.40;;;8.50;99.90;;;;;;5043685;28;20037;-85
2024/03/31 07:54:17;;;;;;;0.47;0.47;;;8.50;99.90;;;;;;5044476;28;20486;-86
2024/03/31 07:56:43;;;;;;;0.40;0.40;;;8.50;99.90;;;;;;5019870;28;20045;-85
2024/03/31 07:59:08;;;;;;;0.40;0.40;;;8.60;99.90;;;;;;5013935;28;20045;-84
2024/03/31 08:01:34;;;;;;;0.32;0.32;;;8.90;99.90;;;;;;4995027;28;20037;-84
2024/03/31 08:04:00;;;;;;;0.45;0.45;;;8.70;99.90;;;;;;5031813;28;20059;-82
2024/03/31 08:06:25;;;;;;;0.40;0.40;;;8.70;99.90;;;;;;5011738;28;20131;-83
2024/03/31 08:08:52;;;;;;;0.40;0.40;;;8.80;99.90;;;;;;5011902;28;20044;-83
2024/03/31 08:11:17;;;;;;;0.40;0.40;;;8.90;99.90;;;;;;5031095;28;20458;-83
2024/03/31 08:13:43;;;;;;;0.55;0.55;;;8.90;99.90;;;;;;5046309;28;20120;-83
2024/03/31 08:16:09;;;;;;;0.50;0.50;;;8.90;99.90;;;;;;5046016;28;20037;-84
2024/03/31 08:18:35;;;;;;;0.40;0.40;;;9.10;99.90;;;;;;5071828;28;20127;-83
2024/03/31 08:21:01;;;;;;;0.50;0.50;;;9.20;99.90;;;;;;5066222;28;20102;-83
2024/03/31 08:23:27;;;;;;;0.45;0.45;;;9.30;99.90;;;;;;5086723;28;20035;-81
2024/03/31 08:25:53;;;;;;;0.30;0.30;;;9.40;99.90;;;;;;5070011;28;20109;-83
2024/03/31 08:28:18;;;;;;;;;;;9.60;99.90;;;;;;5051836;28;20044;-81
2024/03/31 08:30:46;;;;;;;0.45;0.45;;;9.80;99.90;;;;;;5050857;28;20387;-84
2024/03/31 08:33:12;;;;;;;0.30;0.30;;;10.00;99.90;;;;;;5070044;28;20435;-84
2024/03/31 08:35:38;;;;;;;0.40;0.40;;;10.10;99.90;;;;;;5064947;28;20439;-83
2024/03/31 08:38:04;;;;;;;0.30;0.30;;;10.30;99.90;;;;;;5083508;28;20089;-84
2024/03/31 08:40:31;;;;;;;;;;;10.50;99.90;;;;;;5093345;28;20190;-84
2024/03/31 08:43:04;;;;;;;0.30;0.30;;;10.70;99.90;;;;;;5064594;28;19916;-84
2024/03/31 08:45:31;;;;;;;0.68;0.68;;;10.90;99.90;;;;;;5077007;28;20027;-85
2024/03/31 08:47:59;;;;;;;0.30;0.30;;;11.00;99.90;;;;;;5066166;28;20177;-87
2024/03/31 08:50:27;;;;;;;0.20;0.20;;;11.20;99.90;;;;;;5066867;28;20390;-85
2024/03/31 08:52:53;;;;;;;0.40;0.40;;;12.20;99.90;;;;;;5064339;28;20043;-85
2024/03/31 08:55:20;;;;;;;0.43;0.43;;;11.50;99.90;;;;;;5062228;28;20039;-86
2024/03/31 08:57:46;;;;;;;0.40;0.40;;;11.50;99.90;;;;;;5070011;28;20038;-83
2024/03/31 09:00:12;;;;;;;0.47;0.47;;;11.50;99.90;;;;;;5064717;28;20048;-79
2024/03/31 09:02:38;;;;;;;0.20;0.20;;;11.50;99.90;;;;;;5037514;28;20367;-79
2024/03/31 09:05:04;;;;;;;0.20;0.20;;;11.50;99.90;;;;;;5074105;28;20101;-81
2024/03/31 09:07:31;;;;;;;0.82;0.75;;;11.50;99.90;;;;;;5075728;28;20397;-80
2024/03/31 09:09:57;;;;;;;0.30;0.30;;;11.50;99.90;;;;;;5093393;28;20037;-79
2024/03/31 09:12:23;;;;;;;0.35;0.35;;;11.50;99.90;;;;;;5073103;28;20048;-81
2024/03/31 09:14:49;;;;;;;0.30;0.30;;;11.50;99.90;;;;;;5063343;28;20493;-79
2024/03/31 09:17:14;;;;;;;0.22;0.22;;;11.50;99.90;;;;;;5077360;28;20060;-79
2024/03/31 09:19:41;;;;;;;0.30;0.30;;;11.50;99.90;;;;;;5053736;28;20035;-79
2024/03/31 09:22:07;;;;;;;0.60;0.47;;;11.40;99.90;;;;;;5093499;28;20040;-79
2024/03/31 09:24:33;;;;;;;0.30;0.30;;;11.50;99.90;;;;;;5091643;28;20219;-79
2024/03/31 09:26:59;;;;;;;;;;;11.80;99.90;;;;;;5073105;28;20148;-78
2024/03/31 09:29:26;;;;;;;0.30;0.30;;;12.00;99.90;;;;;;5074120;28;19967;-79
2024/03/31 09:32:02;;;;;;;0.52;0.52;;;12.20;99.90;;;;;;5073672;28;20437;-79
2024/03/31 09:34:28;;;;;;;0.30;0.30;;;12.30;99.90;;;;;;5072688;28;20036;-79
2024/03/31 09:36:55;;;;;;;0.10;0.10;;;12.40;99.90;;;;;;5092524;28;20043;-80
2024/03/31 09:39:21;;;;;;;0.75;0.75;;;12.40;99.90;;;;;;5091185;28;20497;-80
2024/03/31 09:41:49;;;;;;;0.30;0.30;;;12.50;99.90;;;;;;5072247;28;20075;-80
2024/03/31 09:44:16;;;;;;;0.30;0.30;;;12.50;99.90;;;;;;5074919;28;20032;-78
2024/03/31 09:46:41;;;;;;;0.20;0.20;;;12.50;99.90;;;;;;5059187;28;20044;-81
2024/03/31 09:49:12;;;;;;;0.40;0.40;;;12.40;99.90;;;;;;5071046;28;20036;-78
2024/03/31 09:51:41;;;;;;;0.50;0.50;;;12.50;99.90;;;;;;5088194;28;20032;-79
2024/03/31 09:54:13;;;;;;;0.82;0.65;;;12.30;99.90;;;;;;5073409;28;20502;-77
2024/03/31 09:57:06;;;;;;;0.50;0.50;;;12.20;99.90;;;;;;5073227;28;20124;-79
2024/03/31 09:59:40;;;;;;;0.20;0.20;;;12.20;99.90;;;;;;5089364;28;20130;-78
2024/03/31 10:02:08;;;;;;;0.30;0.30;;;12.10;99.90;;;;;;5090458;28;20043;-78
2024/03/31 10:04:49;;;;;;;0.40;0.40;;;12.10;99.90;;;;;;5069625;28;20566;-79
2024/03/31 10:07:17;;;;;;;0.20;0.20;;;12.20;99.90;;;;;;5071909;28;20119;-75
2024/03/31 10:09:43;;;;;;;0.40;0.40;;;12.30;99.90;;;;;;5069147;28;20105;-78
2024/03/31 10:12:10;;;;;;;0.70;0.70;;;12.30;99.90;;;;;;5052915;28;20097;-78
2024/03/31 10:14:37;;;;;;;0.60;0.60;;;12.10;99.90;;;;;;5089239;28;20070;-78
2024/03/31 10:17:03;;;;;;;0.30;0.30;;;12.10;99.90;;;;;;5088251;28;20158;-79
2024/03/31 10:19:31;;;;;;;0.20;0.20;;;12.20;99.90;;;;;;5088278;28;20032;-78
2024/03/31 10:21:58;;;;;;;0.30;0.30;;;12.30;99.90;;;;;;5087909;28;20093;-79
2024/03/31 10:24:25;;;;;;;0.45;0.30;;;12.60;99.90;;;;;;5072171;28;20140;-78
2024/03/31 10:26:53;;;;;;;0.82;0.82;;;13.00;99.90;;;;;;5071520;28;20051;-78
2024/03/31 10:29:20;;;;;;;0.30;0.30;;;13.30;99.90;;;;;;5070216;28;20040;-78
2024/03/31 10:31:46;;;;;;;0.20;0.20;;;13.50;99.90;;;;;;5073099;28;20078;-78
2024/03/31 10:34:12;;;;;;;0.15;0.15;;;13.70;99.90;;;;;;5070512;28;20044;-79
2024/03/31 10:36:40;;;;;;;0.35;0.35;;;13.70;99.90;;;;;;5079683;28;20120;-83
2024/03/31 10:39:08;;;;;;;0.73;0.50;;;13.60;99.90;;;;;;5082677;28;20104;-87
2024/03/31 10:41:35;;;;;;;0.40;0.40;;;13.50;99.90;;;;;;5098817;28;20040;-85
2024/03/31 10:44:01;;;;;;;0.30;0.30;;;13.20;99.90;;;;;;5084098;28;20039;-86
2024/03/31 10:46:28;;;;;;;0.20;0.20;;;12.80;99.90;;;;;;5096111;28;20040;-88
2024/03/31 10:48:59;;;;;;;0.30;0.30;;;12.40;99.90;;;;;;5095963;28;20482;-84
2024/03/31 10:51:27;;;;;;;0.32;0.32;;;12.30;99.90;;;;;;5095267;28;20043;-85
2024/03/31 10:53:53;;;;;;;0.22;0.22;;;12.50;99.90;;;;;;5045630;28;20048;-85
2024/03/31 10:56:25;;;;;;;;;;;12.70;99.90;;;;;;5100211;28;20490;-85
2024/03/31 10:58:51;;;;;;;0.40;0.40;;;13.00;99.90;;;;;;5096434;28;19923;-84
2024/03/31 11:01:18;;;;;;;0.20;0.20;;;13.30;99.90;;;;;;5078846;28;20514;-86
2024/03/31 11:03:46;;;;;;;0.20;0.20;;;13.50;99.90;;;;;;5096707;28;20040;-85
2024/03/31 11:06:17;;;;;;;0.20;0.20;;;13.60;99.90;;;;;;5099529;28;20073;-85
2024/03/31 11:08:43;;;;;;;0.82;0.82;;;13.70;99.90;;;;;;5085886;28;20047;-85
2024/03/31 11:11:14;;;;;;;0.20;0.20;;;13.70;99.90;;;;;;5084200;28;20117;-84
2024/03/31 11:13:40;;;;;;;0.22;0.22;;;13.60;99.90;;;;;;5068961;28;20103;-85
2024/03/31 11:16:08;;;;;;;0.40;0.40;;;13.40;99.90;;;;;;5077356;28;20079;-85
2024/03/31 11:18:34;;;;;;;0.20;0.20;;;13.40;99.90;;;;;;5091493;28;20105;-85
2024/03/31 11:21:07;;;;;;;0.55;0.55;;;13.40;99.90;;;;;;5077641;28;20039;-85
2024/03/31 11:23:37;;;;;;;0.20;0.20;;;13.50;99.90;;;;;;5073639;28;20498;-86
2024/03/31 11:26:05;;;;;;;0.30;0.30;;;13.60;99.90;;;;;;5073199;28;20489;-85
2024/03/31 11:28:33;;;;;;;0.20;0.20;;;13.40;99.90;;;;;;5051462;28;20040;-83
2024/03/31 11:30:59;;;;;;;0.20;0.20;;;13.30;99.90;;;;;;5077757;28;20078;-85
2024/03/31 11:33:27;;;;;;;1.33;1.05;;;13.20;99.90;;;;;;5074638;28;20069;-84
2024/03/31 11:35:54;;;;;;;0.30;0.30;;;13.30;99.90;;;;;;5058013;28;20035;-84
2024/03/31 11:38:21;;;;;;;0.20;0.20;;;13.30;99.90;;;;;;5074922;28;20035;-85
2024/03/31 11:40:47;;;;;;;0.20;0.20;;;13.30;99.90;;;;;;5099243;28;20035;-84
2024/03/31 11:43:13;;;;;;;0.30;0.30;;;13.20;99.90;;;;;;5078493;28;20590;-85
2024/03/31 11:45:39;;;;;;;0.35;0.30;;;13.20;99.90;;;;;;5074520;28;20119;-78
2024/03/31 11:48:05;;;;;;;;;;;13.30;99.90;;;;;;5088842;28;20058;-78
2024/03/31 11:50:32;;;;;;;0.25;0.25;;;13.30;99.90;;;;;;5087706;28;20365;-78
2024/03/31 11:52:59;;;;;;;0.77;0.77;;;13.40;99.90;;;;;;5054440;28;20118;-77
2024/03/31 11:55:25;;;;;;;0.30;0.30;;;13.50;99.90;;;;;;5052124;28;20067;-77
2024/03/31 11:57:50;;;;;;;0.40;0.40;;;13.60;99.90;;;;;;5082034;28;20072;-77
2024/03/31 12:00:16;;;;;;;0.73;0.73;;;13.50;99.90;;;;;;5065377;28;20089;-78
2024/03/31 12:02:42;;;;;;;;;;;13.50;99.90;;;;;;5024175;28;20040;-77
2024/03/31 12:05:21;;;;;;;0.30;0.30;;;13.60;99.90;;;;;;5072299;28;19924;-77
2024/03/31 12:07:47;;;;;;;0.20;0.20;;;13.90;99.90;;;;;;5071045;28;20137;-77
2024/03/31 12:10:14;;;;;;;0.80;0.80;;;14.10;99.90;;;;;;5065366;28;20509;-77
2024/03/31 12:12:39;;;;;;;0.25;0.25;;;14.10;99.90;;;;;;5050582;28;20119;-77
2024/03/31 12:15:09;;;;;;;3.72;0.52;;;14.30;99.90;;;;;;5069389;28;20078;-77
2024/03/31 12:17:36;;;;;;;0.47;0.43;;;14.40;99.90;;;;;;5055098;28;20170;-77
2024/03/31 12:20:08;;;;;;;0.30;0.30;;;14.50;99.90;;;;;;5067469;28;20129;-76
2024/03/31 12:22:41;;;;;;;0.50;0.50;;;14.60;99.90;;;;;;5052172;28;20633;-76
2024/03/31 12:25:11;;;;;;;0.65;0.57;;;14.80;99.90;;;;;;5052312;28;20047;-82
2024/03/31 12:27:37;;;;;;;0.45;0.45;;;15.00;99.90;;;;;;5041128;28;20071;-81
2024/03/31 12:30:04;;;;;;;0.38;0.38;;;15.10;99.90;;;;;;5041544;28;20076;-80
2024/03/31 12:32:31;;;;;;;0.43;0.43;;;15.20;99.90;;;;;;5047496;28;20040;-80
2024/03/31 12:34:57;;;;;;;;;;;15.20;99.90;;;;;;5071888;28;20044;-80
2024/03/31 12:37:23;;;;;;;;;;;15.10;99.90;;;;;;5093210;28;19938;-80
2024/03/31 12:39:49;;;;;;;;;;;14.90;99.90;;;;;;5061754;28;19920;-82
2024/03/31 12:42:15;;;;;;;;;;;14.70;99.90;;;;;;5050092;28;19920;-82
2024/03/31 12:44:41;;;;;;;;;;;14.70;99.90;;;;;;5075699;28;19923;-81
2024/03/31 12:47:07;;;;;;;;;;;14.20;99.90;;;;;;5057511;28;19945;-81
2024/03/31 12:49:33;;;;;;;;;;;14.80;99.90;;;;;;5073778;28;19922;-82
2024/03/31 12:52:03;;;;;;;;;;;14.80;99.90;;;;;;5090944;28;19988;-82
2024/03/31 12:54:29;;;;;;;;;;;14.80;99.90;;;;;;5075167;28;20010;-81
2024/03/31 12:56:54;;;;;;;;;;;14.80;99.90;;;;;;5076602;28;20011;-82